Time;durP1;ratioP1;P1;durP2;ratioP2;P2;SDS_P1;SDS_P2;PMS_P1;PMS_P2;Temp;Humidity;BMP_temperature;BMP_pressure;BME280_temperature;BME280_humidity;BME280_pressure;Samples;Min_cycle;Max_cycle;Signal;HPM_P1;HPM_P2
2021/06/14 00:00:29;;;;;;;2.38;1.40;;;;;;;17.66;54.99;101075.25;5068495;28;20160;-75
2021/06/14 00:02:54;;;;;;;1.70;1.60;;;;;;;17.58;55.46;101079.50;5016727;28;20074;-76
2021/06/14 00:05:32;;;;;;;2.22;1.92;;;;;;;17.52;56.21;101085.41;5029407;28;20059;-75
2021/06/14 00:07:58;;;;;;;1.83;1.73;;;;;;;17.43;56.34;101076.94;5059312;28;20027;-77
2021/06/14 00:10:26;;;;;;;3.50;2.00;;;;;;;17.35;56.18;101080.38;5055198;28;20036;-77
2021/06/14 00:12:52;;;;;;;2.13;2.03;;;;;;;17.28;56.70;101070.47;5063377;28;20028;-76
2021/06/14 00:15:18;;;;;;;1.65;1.55;;;;;;;17.21;57.22;101069.22;5060690;28;20028;-77
2021/06/14 00:17:44;;;;;;;2.00;1.90;;;;;;;17.19;56.84;101072.28;5061374;28;20031;-76
2021/06/14 00:20:12;;;;;;;1.88;1.77;;;;;;;17.06;57.31;101070.22;5064608;28;20033;-77
2021/06/14 00:22:39;;;;;;;2.00;1.80;;;;;;;16.98;57.28;101073.63;5035012;28;20027;-77
2021/06/14 00:25:09;;;;;;;2.58;1.40;;;;;;;17.03;57.48;101079.91;5067426;28;20078;-80
2021/06/14 00:27:34;;;;;;;2.38;1.83;;;;;;;16.96;57.70;101073.91;5076698;28;20046;-76
2021/06/14 00:30:02;;;;;;;2.67;2.47;;;;;;;16.96;57.83;101084.97;5041744;28;20048;-76
2021/06/14 00:32:27;;;;;;;1.77;1.52;;;;;;;16.88;57.92;101067.09;5059537;28;20078;-77
2021/06/14 00:34:53;;;;;;;1.45;1.45;;;;;;;16.86;57.60;101069.28;5049352;28;20021;-77
2021/06/14 00:37:18;;;;;;;2.88;1.73;;;;;;;16.81;58.07;101077.63;5047202;28;20028;-78
2021/06/14 00:39:45;;;;;;;2.05;1.95;;;;;;;16.80;58.31;101075.97;5034296;28;20083;-78
2021/06/14 00:42:10;;;;;;;1.75;1.65;;;;;;;16.83;57.76;101085.63;5038866;28;20029;-78
2021/06/14 00:44:36;;;;;;;2.08;1.67;;;;;;;16.73;58.13;101081.03;5043742;28;20024;-77
2021/06/14 00:47:02;;;;;;;2.85;1.77;;;;;;;16.80;58.76;101098.06;5025427;28;20044;-77
2021/06/14 00:49:50;;;;;;;3.45;2.15;;;;;;;16.75;58.50;101085.16;5037446;28;20041;-77
2021/06/14 00:53:16;;;;;;;;;;;;;;;;;;;;;
2021/06/14 01:07:03;;;;;;;1.92;1.52;;;;;;;16.51;58.35;101068.53;4989410;28;20048;-76
2021/06/14 01:10:20;;;;;;;;;;;;;;;;;;;;;
2021/06/14 01:13:26;;;;;;;1.20;1.20;;;;;;;16.46;58.12;101054.78;4950835;28;20045;-77
2021/06/14 01:16:38;;;;;;;1.27;1.25;;;;;;;16.42;58.39;101047.38;4990315;28;20033;-77
2021/06/14 01:26:42;;;;;;;;;;;;;;;;;;;;;
2021/06/14 01:40:05;;;;;;;0.95;0.90;;;;;;;16.03;59.25;101008.53;4866466;29;20047;-77
2021/06/14 01:43:21;;;;;;;;;;;;;;;;;;;;;
2021/06/14 01:46:32;;;;;;;0.50;0.40;;;;;;;15.97;59.53;100981.28;4847982;29;20067;-75
2021/06/14 01:56:32;;;;;;;0.30;0.30;;;;;;;15.93;58.73;100956.22;4730370;30;20032;-75
2021/06/14 01:59:39;;;;;;;;;;;;;;;;;;;;;
2021/06/14 02:02:23;;;;;;;0.10;0.10;;;;;;;16.01;58.97;100977.63;4820659;29;20051;-76
2021/06/14 02:04:51;;;;;;;2.55;0.90;;;;;;;15.93;58.72;100958.13;4984306;28;20046;-75
2021/06/14 02:07:31;;;;;;;3.75;0.68;;;;;;;16.12;58.75;100985.81;4966153;28;20027;-75
2021/06/14 02:10:33;;;;;;;;;;;;;;;;;;;;;
2021/06/14 02:13:09;;;;;;;;;;;;;;;;;;;;;
2021/06/14 02:15:38;;;;;;;0.30;0.30;;;;;;;16.08;58.99;100976.47;5012066;28;20085;-75
2021/06/14 02:18:09;;;;;;;0.60;0.60;;;;;;;15.94;59.37;100959.78;5002581;28;20109;-76
2021/06/14 02:20:53;;;;;;;0.70;0.70;;;;;;;15.82;59.37;100936.16;5041896;28;20040;-76
2021/06/14 02:23:21;;;;;;;0.50;0.50;;;;;;;15.92;59.44;100957.31;5048614;28;20440;-77
2021/06/14 02:26:07;;;;;;;0.47;0.47;;;;;;;15.85;58.96;100941.09;5061873;28;20078;-76
2021/06/14 02:28:33;;;;;;;0.43;0.43;;;;;;;15.78;58.81;100939.75;5042412;28;20550;-76
2021/06/14 02:31:02;;;;;;;0.65;0.65;;;;;;;15.95;59.27;100978.00;5053186;28;20060;-77
2021/06/14 02:33:28;;;;;;;0.73;0.73;;;;;;;15.79;59.50;100958.81;5021303;28;20081;-78
2021/06/14 02:35:53;;;;;;;0.60;0.60;;;;;;;15.91;59.42;100982.44;5038662;28;20037;-78
2021/06/14 02:38:19;;;;;;;0.88;0.88;;;;;;;15.89;59.92;100968.94;5050268;28;20021;-78
2021/06/14 02:40:45;;;;;;;0.73;0.73;;;;;;;15.88;59.88;100968.09;5035902;28;20024;-78
2021/06/14 02:43:10;;;;;;;0.50;0.50;;;;;;;15.88;59.50;100961.75;5053753;28;20082;-78
2021/06/14 02:45:38;;;;;;;0.60;0.60;;;;;;;15.86;59.66;100967.56;5043461;28;20032;-77
2021/06/14 02:48:05;;;;;;;0.82;0.82;;;;;;;15.85;59.80;100967.84;5037130;28;20467;-76
2021/06/14 02:50:36;;;;;;;0.80;0.80;;;;;;;15.78;59.65;100956.31;5053018;28;20120;-76
2021/06/14 02:53:11;;;;;;;1.00;1.00;;;;;;;15.78;60.04;100957.16;5040265;28;20025;-77
2021/06/14 02:55:49;;;;;;;0.80;0.80;;;;;;;15.74;59.93;100961.59;5035181;28;20052;-77
2021/06/14 02:58:19;;;;;;;1.50;1.05;;;;;;;15.71;60.16;100962.13;5042516;28;20044;-76
2021/06/14 03:00:44;;;;;;;1.15;1.13;;;;;;;15.65;60.28;100952.25;5065120;28;20065;-77
2021/06/14 03:03:10;;;;;;;4.40;1.00;;;;;;;15.47;60.26;100923.47;5065804;28;20028;-78
2021/06/14 03:05:36;;;;;;;1.05;1.05;;;;;;;15.47;60.55;100934.47;5069352;28;20028;-75
2021/06/14 03:08:03;;;;;;;0.43;0.43;;;;;;;15.41;60.23;100930.13;5048480;28;20020;-77
2021/06/14 03:10:31;;;;;;;0.60;0.60;;;;;;;15.40;60.45;100929.28;5048668;28;20024;-77
2021/06/14 03:12:58;;;;;;;0.50;0.50;;;;;;;15.38;60.31;100925.19;5046986;28;20029;-77
2021/06/14 03:15:26;;;;;;;0.43;0.43;;;;;;;15.32;60.82;100918.88;5051580;28;20032;-77
2021/06/14 03:17:52;;;;;;;0.90;0.90;;;;;;;15.29;60.84;100911.19;5074421;28;20021;-77
2021/06/14 03:20:20;;;;;;;1.48;1.38;;;;;;;15.23;61.30;100898.53;5065720;28;20033;-77
2021/06/14 03:22:45;;;;;;;1.00;1.00;;;;;;;15.25;60.99;100904.59;5072721;28;20016;-78
2021/06/14 03:25:11;;;;;;;1.55;1.35;;;;;;;15.24;61.72;100894.69;5042324;28;20039;-78
2021/06/14 03:27:38;;;;;;;7.38;1.95;;;;;;;15.17;61.40;100893.09;5052135;28;20027;-78
2021/06/14 03:30:04;;;;;;;1.50;1.40;;;;;;;15.14;61.90;100901.91;5042575;28;20036;-77
2021/06/14 03:32:31;;;;;;;2.00;1.85;;;;;;;15.09;61.60;100901.13;5053221;28;20028;-77
2021/06/14 03:34:58;;;;;;;4.10;3.10;;;;;;;15.04;62.27;100899.22;5058451;28;20127;-76
2021/06/14 03:37:46;;;;;;;7.13;2.65;;;;;;;15.00;62.30;100892.63;5046876;28;20115;-77
2021/06/14 03:40:41;;;;;;;;;;;;;;;;;;;;;
2021/06/14 03:44:13;;;;;;;3.30;3.20;;;;;;;14.86;62.87;100877.84;5047927;28;20127;-77
2021/06/14 03:57:51;;;;;;;;;;;;;;;;;;;;;
2021/06/14 04:00:22;;;;;;;3.08;2.88;;;;;;;14.57;63.00;100867.50;4987333;28;20133;-77
2021/06/14 04:02:59;;;;;;;3.20;3.00;;;;;;;14.58;63.53;100877.41;4957824;28;20069;-78
2021/06/14 04:05:55;;;;;;;;;;;;;;;;;;;;;
2021/06/14 04:08:29;;;;;;;;;;;;;;;14.67;63.67;100895.00;5061731;28;20116;-77
2021/06/14 04:11:03;;;;;;;2.95;2.75;;;;;;;14.50;63.63;100867.81;5042113;28;19916;-76
2021/06/14 04:13:49;;;;;;;2.20;2.10;;;;;;;14.42;63.86;100844.44;5053385;28;20024;-77
2021/06/14 04:16:41;;;;;;;1.88;1.77;;;;;;;14.60;62.95;100872.44;5064736;28;20100;-77
2021/06/14 04:19:17;;;;;;;1.48;1.17;;;;;;;14.71;63.47;100890.56;5041135;28;20116;-76
2021/06/14 04:22:15;;;;;;;;;;;;;;;;;;;;;
2021/06/14 04:28:10;;;;;;;1.10;1.10;;;;;;;14.87;63.23;100882.25;5002689;28;20026;-75
2021/06/14 04:30:38;;;;;;;1.98;1.20;;;;;;;14.77;63.14;100875.69;5011037;28;20479;-76
2021/06/14 04:33:09;;;;;;;1.13;1.13;;;;;;;14.86;63.15;100891.63;4998388;28;20073;-77
2021/06/14 04:43:27;;;;;;;2.55;2.35;;;;;;;15.02;62.88;100901.44;4993684;28;20045;-76
2021/06/14 04:46:29;;;;;;;;;;;;;;;;;;;;;
2021/06/14 04:49:07;;;;;;;2.65;2.47;;;;;;;14.95;63.54;100884.41;4990808;28;20087;-76
2021/06/14 04:55:16;;;;;;;;;;;;;;;;;;;;;
2021/06/14 05:02:09;;;;;;;1.58;1.48;;;;;;;15.45;62.64;100931.19;5000557;28;20087;-77
2021/06/14 05:05:30;;;;;;;1.95;1.85;;;;;;;15.50;63.18;100934.72;4999208;28;20137;-77
2021/06/14 05:08:00;;;;;;;1.42;1.33;;;;;;;15.56;62.93;100938.25;4987898;28;20038;-77
2021/06/14 05:10:39;;;;;;;1.83;1.10;;;;;;;15.61;62.45;100934.66;4993847;28;20057;-77
2021/06/14 05:13:48;;;;;;;1.42;1.10;;;;;;;15.84;62.74;100966.19;5001691;28;20524;-76
2021/06/14 05:16:28;;;;;;;1.42;1.20;;;;;;;15.80;62.58;100940.31;4990455;28;20197;-77
2021/06/14 05:26:09;;;;;;;0.70;0.70;;;;;;;16.15;61.89;100949.38;5010332;28;20029;-76
2021/06/14 05:28:37;;;;;;;0.70;0.70;;;;;;;16.40;61.85;100968.44;5009689;28;20035;-77
2021/06/14 05:31:04;;;;;;;0.60;0.60;;;;;;;16.45;61.53;100953.75;5039820;28;20025;-77
2021/06/14 05:33:30;;;;;;;0.63;0.63;;;;;;;16.60;61.61;100974.03;5016337;28;20025;-76
2021/06/14 05:35:55;;;;;;;0.43;0.43;;;;;;;16.66;61.16;100968.19;5043696;28;20034;-76
2021/06/14 05:45:25;;;;;;;;;;;;;;;17.10;60.44;100967.09;4979269;28;20039;-76
2021/06/14 05:48:34;;;;;;;0.90;0.90;;;;;;;16.98;60.73;100932.72;4981704;28;19961;-77
2021/06/14 05:51:15;;;;;;;1.00;1.00;;;;;;;17.17;60.61;100963.13;4913645;29;20043;-77
2021/06/14 06:04:08;;;;;;;7.03;1.10;;;;;;;17.54;60.16;100944.94;4877716;29;20039;-76
2021/06/14 06:07:26;;;;;;;;;;;;;;;;;;;;;
2021/06/14 06:09:55;;;;;;;1.33;1.23;;;;;;;17.75;59.20;100926.03;5055191;28;20124;-77
2021/06/14 06:12:21;;;;;;;0.80;0.80;;;;;;;17.75;59.32;100912.22;5069567;28;20055;-74
2021/06/14 06:14:47;;;;;;;1.20;0.90;;;;;;;17.87;58.99;100926.41;5045196;28;20041;-75
2021/06/14 06:17:34;;;;;;;0.80;0.75;;;;;;;18.11;58.69;100944.84;5065681;28;20027;-77
2021/06/14 06:21:10;;;;;;;1.05;1.02;;;;;;;18.28;58.65;100958.06;5052223;28;20016;-77
2021/06/14 06:45:00;;;;;;;;;;;;;;;;;;;;;
2021/06/14 06:48:37;;;;;;;;;;;;;;;;;;;;;
2021/06/14 06:51:30;;;;;;;1.33;1.23;;;;;;;18.69;58.88;100923.22;4882483;28;20045;-78
2021/06/14 06:54:11;;;;;;;1.83;1.67;;;;;;;18.77;58.55;100912.22;4977174;28;20034;-77
2021/06/14 06:57:14;;;;;;;;;;;;;;;;;;;;;
2021/06/14 06:59:48;;;;;;;1.63;1.52;;;;;;;19.16;58.39;100946.91;4990173;28;20224;-77
2021/06/14 07:03:08;;;;;;;;;;;;;;;;;;;;;
2021/06/14 07:06:02;;;;;;;1.10;1.00;;;;;;;19.43;57.79;100924.94;5015662;28;20120;-73
2021/06/14 07:08:31;;;;;;;0.80;0.80;;;;;;;19.70;57.42;100941.47;5001351;28;20039;-70
2021/06/14 07:10:56;;;;;;;1.40;1.30;;;;;;;19.75;57.29;100932.19;5026864;28;20287;-70
2021/06/14 07:13:22;;;;;;;1.48;1.38;;;;;;;19.83;57.14;100939.81;5044695;28;20086;-70
2021/06/14 07:15:47;;;;;;;1.55;1.45;;;;;;;19.96;56.89;100938.09;5049930;28;20087;-71
2021/06/14 07:18:15;;;;;;;1.27;1.17;;;;;;;20.05;56.94;100938.97;5066581;28;20450;-70
2021/06/14 07:20:41;;;;;;;1.50;1.00;;;;;;;20.18;56.70;100940.00;5065663;28;20523;-73
2021/06/14 07:23:06;;;;;;;1.10;1.00;;;;;;;20.32;56.77;100939.91;5052060;28;20101;-71
2021/06/14 07:25:32;;;;;;;1.38;0.90;;;;;;;20.44;56.66;100935.72;5064600;28;20510;-70
2021/06/14 07:27:57;;;;;;;1.35;1.05;;;;;;;20.53;56.25;100936.56;5069934;28;20052;-75
2021/06/14 07:30:23;;;;;;;2.42;1.70;;;;;;;20.57;56.73;100926.44;5041484;28;20029;-76
2021/06/14 07:32:48;;;;;;;2.30;0.95;;;;;;;20.64;56.27;100935.13;5063888;28;20029;-75
2021/06/14 07:35:14;;;;;;;1.65;1.40;;;;;;;20.74;55.87;100926.53;5046638;28;20028;-75
2021/06/14 07:37:39;;;;;;;1.67;1.40;;;;;;;20.87;56.22;100929.50;5063433;28;20029;-75
2021/06/14 07:40:08;;;;;;;8.70;1.52;;;;;;;20.95;55.49;100934.25;5061808;28;20451;-75
2021/06/14 07:42:33;;;;;;;1.83;1.67;;;;;;;21.05;55.64;100931.16;5068609;28;20025;-75
2021/06/14 07:44:59;;;;;;;1.70;1.20;;;;;;;21.17;55.28;100921.38;5040135;28;20104;-75
2021/06/14 07:47:25;;;;;;;1.27;1.17;;;;;;;21.37;55.13;100934.63;5057053;28;20024;-75
2021/06/14 07:49:51;;;;;;;6.60;1.35;;;;;;;21.47;54.40;100927.13;5066827;28;20076;-76
2021/06/14 07:52:16;;;;;;;1.65;1.55;;;;;;;21.55;53.97;100935.50;5045327;28;20033;-75
2021/06/14 07:54:41;;;;;;;1.73;1.30;;;;;;;21.65;53.56;100939.88;5075271;28;20027;-75
2021/06/14 07:57:07;;;;;;;2.35;1.38;;;;;;;21.75;53.61;100939.53;5067279;28;20037;-76
2021/06/14 07:59:34;;;;;;;1.33;1.23;;;;;;;21.87;53.46;100940.84;5043816;28;20024;-76
2021/06/14 08:02:00;;;;;;;3.78;1.65;;;;;;;21.91;52.52;100941.81;5055304;28;20037;-75
2021/06/14 08:04:26;;;;;;;2.70;1.35;;;;;;;21.94;52.05;100938.38;5066201;28;20029;-74
2021/06/14 08:06:51;;;;;;;1.45;1.40;;;;;;;22.03;52.37;100939.16;5048730;28;20059;-75
2021/06/14 08:09:20;;;;;;;1.67;1.58;;;;;;;22.12;51.96;100947.50;5051567;28;20472;-72
2021/06/14 08:11:46;;;;;;;2.25;1.45;;;;;;;22.25;51.96;100940.94;5062147;28;20445;-71
2021/06/14 08:14:11;;;;;;;2.33;2.13;;;;;;;22.28;51.20;100936.63;5070006;28;20043;-72
2021/06/14 08:16:43;;;;;;;1.25;1.17;;;;;;;22.28;51.46;100939.41;5037647;28;20043;-73
2021/06/14 08:19:13;;;;;;;1.55;1.45;;;;;;;22.37;52.16;100940.25;5043840;28;20029;-71
2021/06/14 08:22:08;;;;;;;8.88;1.60;;;;;;;22.51;51.44;100930.84;5042249;28;20040;-72
2021/06/14 08:27:14;;;;;;;2.80;1.60;;;;;;;22.80;50.75;100933.63;5044906;28;20044;-72
2021/06/14 08:29:40;;;;;;;3.88;1.20;;;;;;;22.86;50.46;100930.66;5044275;28;20025;-74
2021/06/14 08:32:08;;;;;;;1.63;1.42;;;;;;;23.00;50.30;100939.59;5063076;28;20092;-72
2021/06/14 08:34:33;;;;;;;1.08;1.00;;;;;;;23.12;50.46;100928.53;5039406;28;20379;-71
2021/06/14 08:36:59;;;;;;;1.10;0.80;;;;;;;23.29;49.55;100935.97;5059327;28;20047;-72
2021/06/14 08:39:32;;;;;;;2.53;1.02;;;;;;;23.35;48.60;100934.59;5061227;28;20044;-72
2021/06/14 08:42:00;;;;;;;1.13;0.80;;;;;;;23.47;48.69;100938.63;5031975;28;20050;-71
2021/06/14 08:44:25;;;;;;;1.17;1.08;;;;;;;23.57;48.18;100946.56;5065027;28;20096;-69
2021/06/14 08:46:54;;;;;;;5.88;1.50;;;;;;;23.69;48.57;100945.81;5061451;28;20056;-73
2021/06/14 08:49:20;;;;;;;1.30;1.20;;;;;;;23.71;48.42;100946.25;5064166;28;20067;-72
2021/06/14 08:51:46;;;;;;;1.30;1.20;;;;;;;23.79;48.70;100945.38;5041829;28;20037;-73
2021/06/14 08:54:11;;;;;;;0.95;0.85;;;;;;;23.94;48.44;100945.94;5061884;28;20024;-73
2021/06/14 08:56:37;;;;;;;1.50;1.40;;;;;;;24.00;46.79;100930.56;5059228;28;20021;-73
2021/06/14 08:59:03;;;;;;;2.88;1.67;;;;;;;23.82;46.48;100933.53;5060421;28;20024;-72
2021/06/14 09:01:29;;;;;;;2.75;1.70;;;;;;;23.69;47.36;100934.63;5041847;28;20128;-73
2021/06/14 09:03:54;;;;;;;1.90;1.55;;;;;;;23.76;47.34;100934.91;5063832;28;20354;-72
2021/06/14 09:06:20;;;;;;;1.00;1.00;;;;;;;23.90;46.94;100928.22;5036426;28;20041;-72
2021/06/14 09:08:59;;;;;;;6.88;1.42;;;;;;;24.05;46.16;100927.56;5064118;28;20028;-72
2021/06/14 09:11:26;;;;;;;2.28;1.65;;;;;;;24.07;45.84;100922.44;5063147;28;20089;-72
2021/06/14 09:13:52;;;;;;;1.83;1.70;;;;;;;24.03;46.16;100921.50;5039974;28;20036;-72
2021/06/14 09:16:18;;;;;;;1.27;1.15;;;;;;;24.14;46.06;100917.09;5061646;28;20016;-71
2021/06/14 09:18:44;;;;;;;0.85;0.85;;;;;;;24.29;45.37;100917.59;5058781;28;20044;-73
2021/06/14 09:21:20;;;;;;;4.30;1.95;;;;;;;24.37;44.52;100909.09;5035855;28;20072;-71
2021/06/14 09:23:54;;;;;;;3.85;1.30;;;;;;;24.36;44.35;100901.06;5061040;28;20036;-73
2021/06/14 09:26:34;;;;;;;0.80;0.80;;;;;;;24.48;45.28;100903.84;5062718;28;20035;-72
2021/06/14 09:29:03;;;;;;;1.17;1.08;;;;;;;24.65;44.04;100910.41;5061394;28;20020;-73
2021/06/14 09:31:40;;;;;;;1.48;1.38;;;;;;;24.75;43.70;100918.34;5066885;28;20016;-73
2021/06/14 09:34:27;;;;;;;0.95;0.95;;;;;;;24.88;43.72;100917.16;5064262;28;20024;-71
2021/06/14 09:37:01;;;;;;;1.20;1.10;;;;;;;24.94;42.12;100903.75;5060950;28;20044;-73
2021/06/14 09:39:27;;;;;;;4.22;1.05;;;;;;;25.07;41.63;100924.09;5066866;28;20039;-71
2021/06/14 09:41:53;;;;;;;2.35;0.95;;;;;;;25.19;41.76;100914.84;5040421;28;20115;-73
2021/06/14 09:44:32;;;;;;;1.10;0.68;;;;;;;25.32;41.03;100919.31;5039615;28;20067;-75
2021/06/14 09:47:04;;;;;;;0.73;0.50;;;;;;;25.46;41.55;100918.88;5052890;28;20032;-73
2021/06/14 09:49:30;;;;;;;1.52;0.68;;;;;;;25.57;40.28;100913.59;5063185;28;20017;-73
2021/06/14 09:51:57;;;;;;;1.08;0.90;;;;;;;25.65;40.50;100912.63;5055497;28;20162;-72
2021/06/14 09:54:30;;;;;;;1.33;0.77;;;;;;;25.79;40.53;100912.22;5062258;28;20027;-71
2021/06/14 09:56:57;;;;;;;0.98;0.70;;;;;;;25.88;39.94;100912.84;5054880;28;20385;-73
2021/06/14 09:59:27;;;;;;;1.63;0.50;;;;;;;26.07;40.60;100903.78;5047295;28;20430;-71
2021/06/14 10:02:18;;;;;;;0.50;0.40;;;;;;;26.31;40.48;100910.38;5053251;28;20065;-72
2021/06/14 10:04:46;;;;;;;5.28;0.80;;;;;;;26.43;40.62;100910.28;5048389;28;20339;-71
2021/06/14 10:07:14;;;;;;;1.00;0.85;;;;;;;26.48;39.92;100912.81;5040050;28;20497;-70
2021/06/14 10:09:58;;;;;;;1.10;0.50;;;;;;;26.65;40.11;100911.63;5060664;28;20028;-72
2021/06/14 10:12:28;;;;;;;1.95;1.52;;;;;;;27.04;39.56;100904.50;5048620;28;20051;-71
2021/06/14 10:14:55;;;;;;;0.30;0.30;;;;;;;27.43;40.11;100910.97;5055000;28;20095;-72
2021/06/14 10:17:32;;;;;;;1.58;0.50;;;;;;;27.95;39.33;100910.75;5066995;28;20036;-72
2021/06/14 10:20:21;;;;;;;1.25;0.60;;;;;;;28.48;38.43;100919.34;5055665;28;20025;-73
2021/06/14 10:22:49;;;;;;;1.58;0.70;;;;;;;28.76;37.14;100925.84;5062988;28;20024;-72
2021/06/14 10:25:16;;;;;;;1.85;0.63;;;;;;;28.93;37.00;100921.63;5061253;28;20103;-70
2021/06/14 10:27:43;;;;;;;1.02;0.68;;;;;;;29.34;37.40;100924.66;5061997;28;20029;-71
2021/06/14 10:30:11;;;;;;;1.02;0.85;;;;;;;29.75;36.21;100905.81;5041528;28;20038;-72
2021/06/14 10:32:39;;;;;;;3.47;0.70;;;;;;;30.14;35.47;100924.34;5057812;28;20033;-71
2021/06/14 10:35:07;;;;;;;0.43;0.30;;;;;;;30.55;35.50;100920.66;5046133;28;20025;-72
2021/06/14 10:37:42;;;;;;;0.40;0.40;;;;;;;30.80;33.77;100924.47;5040531;28;20642;-71
2021/06/14 10:40:10;;;;;;;0.93;0.40;;;;;;;30.87;33.39;100918.09;5057424;28;20036;-72
2021/06/14 10:42:35;;;;;;;1.40;0.40;;;;;;;31.13;33.56;100914.22;5058523;28;20067;-72
2021/06/14 10:45:02;;;;;;;0.30;0.30;;;;;;;31.27;33.88;100910.63;5053487;28;20052;-73
2021/06/14 10:47:27;;;;;;;3.20;0.73;;;;;;;31.32;31.41;100915.09;5055278;28;20040;-71
2021/06/14 10:49:56;;;;;;;0.73;0.45;;;;;;;31.06;31.48;100921.81;5062759;28;20020;-71
2021/06/14 10:52:22;;;;;;;1.67;0.30;;;;;;;30.74;32.60;100917.59;5054746;28;20021;-70
2021/06/14 10:54:48;;;;;;;0.50;0.50;;;;;;;30.50;32.11;100912.56;5060345;28;20032;-72
2021/06/14 10:57:13;;;;;;;0.70;0.52;;;;;;;30.23;33.52;100915.56;5050282;28;20027;-71
2021/06/14 10:59:44;;;;;;;0.82;0.65;;;;;;;29.89;33.78;100912.81;5039707;28;20025;-72
2021/06/14 11:02:14;;;;;;;0.65;0.32;;;;;;;29.78;34.04;100910.66;5060766;28;20048;-72
2021/06/14 11:04:42;;;;;;;0.50;0.40;;;;;;;30.00;34.77;100910.91;5041230;28;20044;-75
2021/06/14 11:07:08;;;;;;;5.10;1.08;;;;;;;31.14;34.51;100904.53;5037760;28;20039;-75
2021/06/14 11:09:41;;;;;;;1.13;0.45;;;;;;;32.87;30.71;100916.13;5047870;28;20029;-75
2021/06/14 11:12:12;;;;;;;0.50;0.50;;;;;;;33.94;28.51;100921.78;5066860;28;20037;-73
2021/06/14 11:14:43;;;;;;;1.48;0.40;;;;;;;34.88;27.63;100912.47;5059541;28;20052;-76
2021/06/14 11:17:32;;;;;;;0.35;0.30;;;;;;;36.05;26.51;100908.50;5063204;28;20115;-73
2021/06/14 11:20:00;;;;;;;4.10;0.28;;;;;;;36.97;24.81;100918.72;5046607;28;20064;-75
2021/06/14 11:22:39;;;;;;;0.65;0.50;;;;;;;38.21;25.02;100909.09;5070946;28;20055;-72
2021/06/14 11:25:51;;;;;;;0.52;0.32;;;;;;;39.59;22.06;100898.34;5066180;28;20052;-75
2021/06/14 11:28:33;;;;;;;0.65;0.65;;;;;;;40.77;20.36;100902.16;5064764;28;20036;-73
2021/06/14 11:31:00;;;;;;;4.43;0.28;;;;;;;41.23;20.36;100909.53;5040957;28;20036;-73
2021/06/14 11:33:37;;;;;;;0.55;0.30;;;;;;;42.00;19.96;100897.47;5064835;28;20119;-75
2021/06/14 11:36:57;;;;;;;1.73;0.20;;;;;;;42.99;18.88;100904.25;5061375;28;20036;-75
2021/06/14 11:39:28;;;;;;;0.60;0.30;;;;;;;43.85;18.44;100888.66;5053524;28;20048;-75
2021/06/14 11:42:36;;;;;;;;;;;;;;;;;;;;;
2021/06/14 11:45:06;;;;;;;0.38;0.30;;;;;;;45.68;16.13;100885.94;5061176;28;20035;-75
2021/06/14 11:47:41;;;;;;;0.45;0.20;;;;;;;46.32;15.92;100890.03;5051235;28;20043;-74
2021/06/14 11:50:11;;;;;;;0.30;0.20;;;;;;;46.69;15.21;100900.19;5065014;28;20076;-74
2021/06/14 11:52:37;;;;;;;0.00;0.00;;;;;;;47.20;15.78;100897.81;5067648;28;20040;-74
2021/06/14 11:55:10;;;;;;;0.00;0.00;;;;;;;48.27;16.05;100894.09;5043119;28;20041;-74
2021/06/14 11:57:43;;;;;;;0.08;0.08;;;;;;;49.16;14.75;100891.94;5064846;28;20017;-73
2021/06/14 12:00:25;;;;;;;;;;;;;;;50.68;14.63;100890.75;5043989;28;20048;-75
2021/06/14 12:02:50;;;;;;;0.10;0.10;;;;;;;50.93;12.46;100894.53;5058441;28;19913;-73
2021/06/14 12:05:16;;;;;;;0.20;0.10;;;;;;;50.64;12.42;100896.84;5056877;28;20587;-75
2021/06/14 12:07:41;;;;;;;0.10;0.10;;;;;;;50.96;12.83;100886.84;5043718;28;20040;-73
2021/06/14 12:10:13;;;;;;;0.10;0.00;;;;;;;51.73;12.84;100894.69;5045243;28;20024;-73
2021/06/14 12:12:46;;;;;;;0.00;0.00;;;;;;;52.36;12.13;100886.75;5063835;28;20154;-74
2021/06/14 12:15:12;;;;;;;0.25;0.20;;;;;;;52.64;10.33;100884.78;5062824;28;20386;-73
2021/06/14 12:17:42;;;;;;;0.10;0.10;;;;;;;52.22;10.32;100885.06;5063110;28;20044;-74
2021/06/14 12:20:09;;;;;;;0.28;0.20;;;;;;;52.03;10.86;100887.97;5062008;28;20033;-74
2021/06/14 12:22:51;;;;;;;;;;;;;;;;;;;;;
2021/06/14 12:25:17;;;;;;;0.00;0.00;;;;;;;53.51;10.88;100877.78;5059838;28;20028;-74
2021/06/14 12:27:58;;;;;;;0.10;0.10;;;;;;;54.01;10.27;100886.91;5061426;28;20453;-74
2021/06/14 12:30:28;;;;;;;0.30;0.10;;;;;;;53.63;8.80;100887.13;5065508;28;20082;-75
2021/06/14 12:32:56;;;;;;;1.23;0.30;;;;;;;52.50;9.78;100878.88;5059653;28;20119;-74
2021/06/14 12:35:27;;;;;;;0.20;0.10;;;;;;;52.53;10.69;100886.53;5026570;28;20156;-74
2021/06/14 12:37:54;;;;;;;0.10;0.10;;;;;;;53.38;10.55;100885.19;5059786;28;20025;-75
2021/06/14 12:40:39;;;;;;;;;;;;;;;;;;;;;
2021/06/14 12:43:44;;;;;;;0.35;0.20;;;;;;;53.80;8.79;100878.03;5062731;28;20033;-74
2021/06/14 12:46:02;;;;;;;0.15;0.10;;;;;;;53.62;9.23;100874.63;5062891;28;20036;-74
2021/06/14 12:48:42;;;;;;;0.40;0.25;;;;;;;53.76;8.44;100881.31;5060849;28;20032;-75
2021/06/14 12:51:08;;;;;;;0.40;0.20;;;;;;;51.25;9.42;100867.81;5051645;28;20060;-74
2021/06/14 12:53:33;;;;;;;0.10;0.10;;;;;;;49.81;10.28;100858.06;5065096;28;20582;-73
2021/06/14 12:56:00;;;;;;;0.20;0.20;;;;;;;50.05;10.94;100852.47;5048571;28;20052;-74
2021/06/14 12:58:33;;;;;;;0.20;0.10;;;;;;;50.76;10.67;100847.31;5044703;28;20036;-74
2021/06/14 13:01:05;;;;;;;;;;;;;;;52.48;10.42;100869.88;5044626;28;20041;-73
2021/06/14 13:04:04;;;;;;;6.75;0.10;;;;;;;51.60;10.32;100856.66;5049442;28;19916;-74
2021/06/14 13:06:41;;;;;;;0.20;0.20;;;;;;;49.98;10.67;100853.00;5043833;28;20093;-73
2021/06/14 13:09:06;;;;;;;0.10;0.10;;;;;;;49.20;10.82;100855.53;5044317;28;20054;-74
2021/06/14 13:12:15;;;;;;;0.20;0.10;;;;;;;48.81;11.52;100832.25;5060243;28;20029;-74
2021/06/14 13:15:15;;;;;;;0.20;0.10;;;;;;;48.18;12.11;100826.31;5015359;28;20048;-75
2021/06/14 13:22:21;;;;;;;;;;;;;;;;;;;;;
2021/06/14 13:42:55;;;;;;;;;;;;;;;;;;;;;
2021/06/14 13:45:51;;;;;;;0.10;0.10;;;;;;;47.80;12.26;100845.06;4786103;29;20902;-75
2021/06/14 13:48:20;;;;;;;0.20;0.10;;;;;;;47.56;11.99;100846.25;4844555;29;20038;-75
2021/06/14 13:51:01;;;;;;;0.52;0.10;;;;;;;47.92;12.71;100832.25;4952830;28;20073;-76
2021/06/14 13:53:32;;;;;;;0.20;0.20;;;;;;;48.58;11.71;100835.13;5060483;28;20024;-76
2021/06/14 13:56:04;;;;;;;0.28;0.00;;;;;;;49.13;11.14;100837.81;5044563;28;20036;-72
2021/06/14 13:58:41;;;;;;;0.03;0.03;;;;;;;49.64;11.40;100841.50;5050475;28;20025;-74
2021/06/14 14:01:13;;;;;;;0.15;0.10;;;;;;;49.60;10.55;100835.16;5052604;28;20052;-76
2021/06/14 14:03:42;;;;;;;0.10;0.10;;;;;;;49.48;11.15;100846.00;5052725;28;20025;-74
2021/06/14 14:06:16;;;;;;;0.10;0.10;;;;;;;49.35;10.93;100832.00;5038744;28;20340;-76
2021/06/14 14:13:09;;;;;;;0.10;0.10;;;;;;;49.06;11.13;100825.41;4980436;28;20062;-75
2021/06/14 14:15:26;;;;;;;3.50;0.20;;;;;;;49.42;11.29;100825.66;4968606;28;20033;-74
2021/06/14 14:17:58;;;;;;;0.17;0.10;;;;;;;49.75;11.04;100829.03;5061477;28;20025;-73
2021/06/14 14:20:39;;;;;;;0.30;0.20;;;;;;;50.15;10.46;100825.97;5054338;28;20025;-75
2021/06/14 14:23:10;;;;;;;0.25;0.20;;;;;;;50.58;10.80;100840.81;5036557;28;20029;-74
2021/06/14 14:25:36;;;;;;;0.30;0.30;;;;;;;51.04;10.73;100835.47;5065519;28;20060;-73
2021/06/14 14:28:05;;;;;;;0.20;0.10;;;;;;;50.94;10.70;100848.78;5057128;28;20032;-75
2021/06/14 14:38:45;;;;;;;;;;;;;;;;;;;;;
2021/06/14 14:41:49;;;;;;;1.05;0.20;;;;;;;48.97;10.72;100811.19;4868142;29;20132;-75
2021/06/14 14:44:31;;;;;;;0.20;0.20;;;;;;;48.44;11.13;100821.63;4923603;29;20051;-78
2021/06/14 14:47:05;;;;;;;4.47;0.38;;;;;;;47.82;11.35;100828.75;4978567;28;20042;-75
2021/06/14 14:49:35;;;;;;;;;;;;;;;47.18;11.39;100825.16;5010715;28;20039;-77
2021/06/14 14:52:16;;;;;;;;;;;;;;;;;;;;;
2021/06/14 14:54:46;;;;;;;0.40;0.20;;;;;;;46.12;12.79;100803.31;5053758;28;20085;-76
2021/06/14 14:57:12;;;;;;;1.75;0.30;;;;;;;46.77;12.58;100810.84;5046327;28;20028;-78
2021/06/14 14:59:41;;;;;;;0.13;0.10;;;;;;;45.85;12.35;100799.53;5052579;28;20047;-75
2021/06/14 15:02:11;;;;;;;3.38;0.10;;;;;;;45.52;13.08;100809.31;5056514;28;20456;-76
2021/06/14 15:04:41;;;;;;;0.47;0.10;;;;;;;45.92;13.37;100816.44;5073130;28;20042;-75